createdAt,value
2019-05-02T00:05:00.269Z,63.10
2019-05-02T00:10:05.167Z,62.63
2019-05-02T00:15:07.250Z,66.23
2019-05-02T00:20:10.519Z,61.93
2019-05-02T00:25:16.075Z,62.80
2019-05-02T00:30:18.642Z,67.33
2019-05-02T00:35:20.217Z,66.07
2019-05-02T00:40:26.077Z,66.43
2019-05-02T00:45:25.944Z,60.20
2019-05-02T00:50:29.558Z,63.70
2019-05-02T00:55:33.895Z,58.67
2019-05-02T01:00:39.334Z,60.33
2019-05-02T01:05:40.917Z,60.57
2019-05-02T01:10:42.394Z,56.53
2019-05-02T01:15:44.370Z,60.13
2019-05-02T01:20:47.312Z,58.43
2019-05-02T01:25:52.898Z,58.23
2019-05-02T01:31:02.991Z,53.17
2019-05-02T01:36:08.201Z,52.40
2019-05-02T01:41:10.068Z,49.97
2019-05-02T01:46:11.754Z,53.57
2019-05-02T01:51:13.333Z,47.90
2019-05-02T01:56:14.849Z,48.03
2019-05-02T02:01:21.403Z,45.80
2019-05-02T02:06:20.047Z,48.87
2019-05-02T02:11:21.670Z,45.17
2019-05-02T02:16:23.182Z,44.87
2019-05-02T02:21:25.561Z,46.63
2019-05-02T02:26:28.375Z,45.70
2019-05-02T02:31:29.901Z,41.10
2019-05-02T02:36:34.508Z,48.37
2019-05-02T02:41:35.260Z,45.47
2019-05-02T02:46:40.084Z,48.80
2019-05-02T02:51:42.018Z,43.53
2019-05-02T02:56:43.600Z,45.70
2019-05-02T03:01:45.077Z,47.87
2019-05-02T03:06:47.224Z,36.30
2019-05-02T03:12:09.066Z,40.07
2019-05-02T03:17:11.086Z,36.47
2019-05-02T03:22:12.726Z,36.40
2019-05-02T03:27:15.412Z,38.07
2019-05-02T03:32:32.041Z,31.50
2019-05-02T03:37:21.136Z,30.57
2019-05-02T03:42:22.968Z,31.27
2019-05-02T03:47:24.736Z,31.40
2019-05-02T03:52:26.416Z,27.57
2019-05-02T03:57:33.434Z,29.70
2019-05-02T04:02:32.797Z,32.63
2019-05-02T04:07:39.939Z,38.67
2019-05-02T04:12:40.124Z,28.90
2019-05-02T04:17:42.089Z,30.37
2019-05-02T04:22:49.079Z,30.20
2019-05-02T04:27:48.909Z,33.03
2019-05-02T04:32:55.718Z,29.70
2019-05-02T04:37:53.993Z,32.03
2019-05-02T04:43:02.082Z,28.83
2019-05-02T04:48:03.838Z,30.07
2019-05-02T04:53:02.324Z,33.33
2019-05-02T04:58:03.799Z,30.17
2019-05-02T05:03:07.319Z,30.93
2019-05-02T05:08:08.675Z,28.33
2019-05-02T05:13:12.148Z,28.37
2019-05-02T05:18:14.616Z,29.13
2019-05-02T05:23:21.365Z,25.23
2019-05-02T05:28:21.717Z,28.73
2019-05-02T05:33:23.292Z,27.47
2019-05-02T05:38:28.544Z,27.40
2019-05-02T05:43:28.275Z,26.83
2019-05-02T05:48:32.051Z,31.43
2019-05-02T05:53:33.279Z,43.00
2019-05-02T05:58:39.959Z,38.07
2019-05-02T06:03:42.005Z,34.67
2019-05-02T06:08:41.651Z,35.70
2019-05-02T06:13:48.940Z,36.00
2019-05-02T06:18:47.062Z,38.50
2019-05-02T06:23:48.587Z,34.57
2019-05-02T06:28:50.063Z,22.10
2019-05-02T06:33:51.598Z,24.10
2019-05-02T06:38:56.692Z,23.67
2019-05-02T06:43:56.497Z,21.43
2019-05-02T06:48:58.342Z,24.07
2019-05-02T06:53:59.962Z,29.53
2019-05-02T06:59:03.384Z,24.23
2019-05-02T07:04:05.117Z,24.53
2019-05-02T07:09:06.847Z,20.83
2019-05-02T07:14:13.682Z,25.70
2019-05-02T07:19:12.842Z,23.97
2019-05-02T07:24:14.868Z,22.27
2019-05-02T07:29:16.984Z,22.30
2019-05-02T07:34:19.896Z,22.90
2019-05-02T07:39:21.578Z,23.37
2019-05-02T07:44:27.093Z,24.70
2019-05-02T07:49:32.462Z,21.23
2019-05-02T07:54:30.033Z,20.50
2019-05-02T07:59:31.607Z,22.67
2019-05-02T08:04:33.222Z,24.40
2019-05-02T08:09:39.085Z,21.47
2019-05-02T08:14:39.990Z,25.73
2019-05-02T08:19:43.032Z,22.90
2019-05-02T08:24:45.014Z,20.87
2019-05-02T08:29:46.698Z,27.70
2019-05-02T08:34:51.972Z,37.00
2019-05-02T08:39:51.630Z,29.73
2019-05-02T08:44:56.376Z,24.57
2019-05-02T08:49:56.821Z,27.83
2019-05-02T08:54:58.477Z,23.47
2019-05-02T09:00:01.379Z,24.20
2019-05-02T09:05:06.056Z,25.40
2019-05-02T09:10:08.710Z,28.53
2019-05-02T09:15:11.906Z,25.30
2019-05-02T09:20:18.723Z,26.00
2019-05-02T09:25:18.924Z,22.03
2019-05-02T09:30:22.751Z,27.20
2019-05-02T09:35:25.151Z,23.27
2019-05-02T09:40:26.628Z,24.60
2019-05-02T09:45:33.343Z,23.97
2019-05-02T09:50:34.832Z,20.23
2019-05-02T09:55:43.804Z,22.50
2019-05-02T10:01:01.833Z,21.67
2019-05-02T10:06:03.937Z,21.93
2019-05-02T10:11:06.017Z,25.00
2019-05-02T10:16:07.696Z,26.77
2019-05-02T10:21:13.456Z,24.03
2019-05-02T10:26:19.820Z,31.27
2019-05-02T10:31:16.554Z,27.90
2019-05-02T10:36:19.672Z,25.07
2019-05-02T10:41:22.410Z,24.43
2019-05-02T10:46:33.430Z,26.27
2019-05-02T10:51:34.053Z,27.60
2019-05-02T10:56:35.812Z,22.13
2019-05-02T11:01:56.319Z,24.30
2019-05-02T11:06:58.527Z,26.47
2019-05-02T11:12:02.544Z,26.07
2019-05-02T11:17:13.832Z,23.13
2019-05-02T11:22:15.687Z,24.37
2019-05-02T11:27:17.273Z,24.33
2019-05-02T11:32:18.949Z,25.13
2019-05-02T11:37:22.515Z,24.10
2019-05-02T11:42:27.231Z,24.43
2019-05-02T11:47:27.523Z,19.17
2019-05-02T11:52:33.038Z,16.93
2019-05-02T11:57:33.184Z,19.80
2019-05-02T12:02:35.188Z,19.83
2019-05-02T12:07:37.058Z,17.43
2019-05-02T12:12:39.157Z,86.67
2019-05-02T12:17:41.950Z,17.00
2019-05-02T12:22:43.975Z,14.33
2019-05-02T12:27:46.580Z,17.77
2019-05-02T12:32:48.069Z,24.60
2019-05-02T12:37:53.675Z,24.70
2019-05-02T12:42:53.382Z,25.63
2019-05-02T12:47:54.864Z,15.73
2019-05-02T12:52:57.440Z,20.80
2019-05-02T12:57:59.064Z,16.83
2019-05-02T13:03:11.644Z,13.53
2019-05-02T13:08:13.374Z,17.87
2019-05-02T13:13:17.432Z,15.87
2019-05-02T13:18:23.335Z,14.73
2019-05-02T13:23:27.397Z,16.03
2019-05-02T13:28:26.807Z,20.73
2019-05-02T13:33:31.803Z,20.07
2019-05-02T13:38:35.283Z,13.97
2019-05-02T13:43:38.871Z,15.50
2019-05-02T13:48:42.740Z,13.23
2019-05-02T13:53:47.104Z,13.20
2019-05-02T13:58:49.037Z,15.17
2019-05-02T14:03:53.674Z,17.57
2019-05-02T14:08:56.282Z,17.77
2019-05-02T14:13:57.963Z,15.90
2019-05-02T14:18:59.447Z,13.50
2019-05-02T14:24:01.697Z,14.63
2019-05-02T14:29:07.136Z,15.57
2019-05-02T14:34:21.924Z,17.10
2019-05-02T14:39:23.407Z,14.83
2019-05-02T14:44:28.741Z,15.67
2019-05-02T14:49:28.482Z,14.33
2019-05-02T14:54:32.272Z,15.50
2019-05-02T14:59:33.899Z,15.30
2019-05-02T15:04:38.283Z,16.07
2019-05-02T15:09:39.125Z,14.43
2019-05-02T15:14:40.636Z,14.17
2019-05-02T15:19:42.739Z,13.47
2019-05-02T15:24:44.419Z,17.13
2019-05-02T15:29:45.905Z,15.80
2019-05-02T15:34:56.306Z,17.70
2019-05-02T15:45:05.905Z,15.97
2019-05-02T15:50:08.062Z,17.57
2019-05-02T15:55:11.577Z,18.97
2019-05-02T16:00:23.124Z,17.07
2019-05-02T16:05:23.858Z,19.37
2019-05-02T16:10:25.514Z,15.93
2019-05-02T16:15:27.094Z,19.50
2019-05-02T16:20:32.278Z,29.07
2019-05-02T16:25:34.177Z,21.00
2019-05-02T16:30:36.983Z,19.33
2019-05-02T16:35:39.768Z,24.43
2019-05-02T16:40:41.897Z,18.63
2019-05-02T16:45:44.055Z,20.90
2019-05-02T16:50:45.732Z,19.57
2019-05-02T16:55:47.214Z,19.67
2019-05-02T17:00:48.888Z,26.93
2019-05-02T17:05:54.136Z,20.83
2019-05-02T17:10:57.012Z,23.90
2019-05-02T17:15:58.673Z,22.30
2019-05-02T17:21:01.700Z,23.60
2019-05-02T17:26:03.983Z,24.27
2019-05-02T17:31:10.113Z,29.23
2019-05-02T17:36:09.431Z,52.93
2019-05-02T17:41:11.883Z,33.43
2019-05-02T17:46:18.651Z,30.17
2019-05-02T17:51:22.733Z,39.10
2019-05-02T17:56:25.066Z,41.77
2019-05-02T18:01:33.324Z,30.77
2019-05-02T18:06:35.523Z,36.73
2019-05-02T18:11:37.766Z,41.10
2019-05-02T18:16:39.486Z,33.63
2019-05-02T18:21:41.903Z,35.10
2019-05-02T18:26:43.497Z,45.80
2019-05-02T18:31:47.249Z,161.67
2019-05-02T18:36:48.454Z,73.87
2019-05-02T18:41:51.932Z,113.60
2019-05-02T18:46:53.585Z,79.20
2019-05-02T18:51:57.396Z,41.23
2019-05-02T18:56:58.630Z,43.20
2019-05-02T19:02:02.154Z,44.00
2019-05-02T19:07:07.562Z,38.93
2019-05-02T19:12:13.869Z,41.90
2019-05-02T19:17:12.491Z,42.73
2019-05-02T19:22:17.024Z,35.03
2019-05-02T19:27:21.076Z,32.63
2019-05-02T19:32:27.267Z,47.07
2019-05-02T19:37:26.683Z,39.00
2019-05-02T19:42:28.257Z,32.27
2019-05-02T19:47:31.697Z,36.13
2019-05-02T19:52:38.921Z,35.60
2019-05-02T19:57:37.347Z,40.87
2019-05-02T20:02:42.267Z,44.13
2019-05-02T20:07:42.862Z,46.13
2019-05-02T20:12:48.212Z,43.67
2019-05-02T20:17:48.047Z,45.90
2019-05-02T20:22:49.937Z,49.43
2019-05-02T20:27:52.587Z,45.80
2019-05-02T20:32:54.288Z,49.07
2019-05-02T20:37:55.767Z,53.03
2019-05-02T20:42:57.335Z,51.00
2019-05-02T20:47:59.426Z,49.80
2019-05-02T20:53:01.963Z,59.87
2019-05-02T20:58:03.895Z,61.03
2019-05-02T21:03:05.467Z,78.23
2019-05-02T21:08:22.556Z,70.83
2019-05-02T21:13:24.882Z,65.20
2019-05-02T21:18:26.755Z,58.90
2019-05-02T21:23:40.654Z,93.50
2019-05-02T21:28:32.253Z,58.10
2019-05-02T21:33:38.612Z,60.67
2019-05-02T21:38:42.559Z,63.83
2019-05-02T21:43:44.080Z,73.13
2019-05-02T21:48:45.559Z,54.60
2019-05-02T21:53:58.558Z,56.90
2019-05-02T21:59:07.267Z,53.40
2019-05-02T22:04:09.122Z,52.63
2019-05-02T22:09:12.260Z,47.17
2019-05-02T22:14:14.919Z,48.07
2019-05-02T22:19:16.492Z,46.63
2019-05-02T22:24:17.980Z,47.77
2019-05-02T22:29:21.699Z,46.43
2019-05-02T22:34:23.322Z,44.47
2019-05-02T22:39:42.054Z,53.13
2019-05-02T22:44:43.910Z,49.60
2019-05-02T22:49:45.392Z,42.47
2019-05-02T22:54:46.915Z,40.53
2019-05-02T22:59:48.401Z,42.57
2019-05-02T23:04:52.409Z,43.53
2019-05-02T23:09:53.711Z,38.77
2019-05-02T23:14:55.288Z,46.00
2019-05-02T23:19:56.862Z,43.50
2019-05-02T23:25:17.167Z,46.27
2019-05-02T23:30:22.554Z,42.77
2019-05-02T23:35:24.230Z,51.83
2019-05-02T23:40:25.750Z,48.43
2019-05-02T23:45:27.337Z,45.47
2019-05-02T23:50:28.811Z,44.20
2019-05-02T23:55:32.096Z,41.33
